POGODA: Poland

Lotnisko: Katowice-Pyrzowice

METAR KOD: EPKT


METAR: EPKT 020800Z 04003KT 350V130 3000 BR SCT002 BKN003 13/13 Q1028


BLOK
Pogoda METAR
020800Z
Dzien: 02, Godzina: 08:00 UTC.
04003KT
Wiatr z kierunku 040, o predkosci 6 km/h
350V130
Wiatr zmienny pomiedzy 350 i 130
3000
Widzialnosc pozioma 3000 m.
BR
zamglenia
SCT002
3/8 - 4/8 pokrycia nieba, chmurami o podstawie: 60 metrow
BKN003
5/8 - 7/8 pokrycia nieba, chmurami o podstawie: 90 metrow
13/13
Temperatura: powietrze 13°C, punkt rosy 13°C . Wilgotnosc wzgledna 100 %
Q1028
Cisnienie: 1028 hPa

Pogoda na innym lotnisku

Pogoda Gdansk-Rebiechowo WEATHER Poland  
Pogoda Katowice WEATHER Poland  
Pogoda Krakow WEATHER Poland  
Pogoda Poznan WEATHER Poland  
Pogoda Rzeszow-Jasionka WEATHER Poland  
Pogoda Szczecin WEATHER Poland  
Pogoda Warszawa-Okecie WEATHER Poland  
Pogoda Wroclaw Ii WEATHER Poland  

Pogoda w inny kraju

Strona startowa

(C) by GREGOR 2007
Ogłoszenia Towarzyskie